createdAt,value
2023-05-01T00:00:49.144Z,54.1402
2023-05-01T00:01:50.504Z,54.1272
2023-05-01T00:02:52.090Z,54.1408
2023-05-01T00:03:53.462Z,54.1698
2023-05-01T00:04:54.911Z,54.1649
2023-05-01T00:05:56.235Z,54.1397
2023-05-01T00:06:57.623Z,54.1579
2023-05-01T00:07:59.020Z,54.1882
2023-05-01T00:09:00.484Z,54.1804
2023-05-01T00:10:01.921Z,54.2012
2023-05-01T00:11:03.313Z,54.1998
2023-05-01T00:12:04.740Z,54.2023
2023-05-01T00:13:06.155Z,54.1635
2023-05-01T00:14:07.567Z,54.1406
2023-05-01T00:15:09.000Z,54.1545
2023-05-01T00:16:10.505Z,54.1902
2023-05-01T00:17:11.785Z,54.1926
2023-05-01T00:18:13.278Z,54.1293
2023-05-01T00:19:14.736Z,54.1484
2023-05-01T00:20:16.108Z,54.1870
2023-05-01T00:21:17.548Z,54.1806
2023-05-01T00:22:18.872Z,54.1655
2023-05-01T00:23:20.278Z,54.1855
2023-05-01T00:24:21.781Z,54.1564
2023-05-01T00:25:23.175Z,54.1378
2023-05-01T00:26:24.617Z,54.1140
2023-05-01T00:27:25.993Z,54.1241
2023-05-01T00:28:27.434Z,54.1734
2023-05-01T00:29:28.809Z,54.1715
2023-05-01T00:30:30.297Z,54.2168
2023-05-01T00:31:31.716Z,54.1686
2023-05-01T00:32:33.208Z,54.1979
2023-05-01T00:33:34.509Z,54.2120
2023-05-01T00:34:35.961Z,54.1523
2023-05-01T00:35:37.309Z,54.2023
2023-05-01T00:36:38.849Z,54.2110
2023-05-01T00:37:40.188Z,54.1782
2023-05-01T00:38:41.605Z,54.2221
2023-05-01T00:39:43.050Z,54.2168
2023-05-01T00:40:44.499Z,54.1706
2023-05-01T00:41:45.808Z,54.1836
2023-05-01T00:42:47.328Z,54.1782
2023-05-01T00:43:48.683Z,54.2101
2023-05-01T00:44:50.093Z,54.2104
2023-05-01T00:45:51.754Z,54.2005
2023-05-01T00:46:53.080Z,54.1919
2023-05-01T00:47:54.435Z,54.1740
2023-05-01T00:48:55.793Z,54.1918
2023-05-01T00:49:57.386Z,54.2478
2023-05-01T00:50:58.674Z,54.2010
2023-05-01T00:52:00.142Z,54.2127
2023-05-01T00:53:01.542Z,54.2619
2023-05-01T00:54:02.910Z,54.2503
2023-05-01T00:55:04.358Z,54.2097
2023-05-01T00:56:05.674Z,54.2671
2023-05-01T00:57:07.209Z,54.3161
2023-05-01T00:58:08.580Z,54.2540
2023-05-01T00:59:10.036Z,54.2882
2023-05-01T01:00:11.419Z,54.2378
2023-05-01T01:01:12.904Z,54.2401
2023-05-01T01:02:14.316Z,54.2041
2023-05-01T01:03:15.742Z,54.2254
2023-05-01T01:04:17.143Z,54.2529
2023-05-01T01:05:18.459Z,54.2066
2023-05-01T01:06:19.965Z,54.2680
2023-05-01T01:07:21.456Z,54.2277
2023-05-01T01:08:22.710Z,54.2000
2023-05-01T01:09:24.229Z,54.2208
2023-05-01T01:10:25.600Z,54.1931
2023-05-01T01:11:27.081Z,54.2078
2023-05-01T01:12:28.490Z,54.2214
2023-05-01T01:13:29.890Z,54.2461
2023-05-01T01:14:31.279Z,54.2383
2023-05-01T01:15:32.702Z,54.2835
2023-05-01T01:16:34.204Z,54.3862
2023-05-01T01:17:35.682Z,54.3092
2023-05-01T01:18:36.862Z,54.2472
2023-05-01T01:19:38.406Z,54.3292
2023-05-01T01:20:39.791Z,54.2880
2023-05-01T01:21:41.268Z,54.2438
2023-05-01T01:22:42.658Z,54.2585
2023-05-01T01:23:44.110Z,54.2625
2023-05-01T01:24:45.453Z,54.2502
2023-05-01T01:25:46.919Z,54.2962
2023-05-01T01:26:48.303Z,54.2571
2023-05-01T01:27:49.890Z,54.2550
2023-05-01T01:28:51.156Z,54.3418
2023-05-01T01:29:52.642Z,54.2944
2023-05-01T01:30:54.028Z,54.2507
2023-05-01T01:31:55.453Z,54.3411
2023-05-01T01:32:56.887Z,54.3385
2023-05-01T01:33:58.297Z,54.2962
2023-05-01T01:34:59.670Z,54.2986
2023-05-01T01:36:01.116Z,54.2797
2023-05-01T01:37:02.508Z,54.3180
2023-05-01T01:38:04.057Z,54.3155
2023-05-01T01:39:05.367Z,54.3455
2023-05-01T01:40:06.840Z,54.2848
2023-05-01T01:41:08.217Z,54.3461
2023-05-01T01:42:09.646Z,54.3061
2023-05-01T01:43:11.125Z,54.3044
2023-05-01T01:44:12.453Z,54.3176
2023-05-01T01:45:13.878Z,54.2934
2023-05-01T01:46:15.362Z,54.3243
2023-05-01T01:47:16.740Z,54.3176
2023-05-01T01:48:18.169Z,54.3432
2023-05-01T01:49:20.894Z,54.3214
2023-05-01T01:50:21.048Z,54.3246
2023-05-01T01:51:22.497Z,54.3219
2023-05-01T01:52:23.905Z,54.3181
2023-05-01T01:53:25.226Z,54.3451
2023-05-01T01:54:26.710Z,54.3502
2023-05-01T01:55:28.104Z,54.3627
2023-05-01T01:56:29.560Z,54.3252
2023-05-01T01:57:30.948Z,54.3249
2023-05-01T01:58:32.462Z,54.3685
2023-05-01T01:59:33.833Z,54.3900
2023-05-01T02:00:35.277Z,54.4436
2023-05-01T02:01:36.718Z,54.4347
2023-05-01T02:02:38.280Z,54.3955
2023-05-01T02:03:39.622Z,54.3888
2023-05-01T02:04:40.934Z,54.4206
2023-05-01T02:05:42.343Z,54.3922
2023-05-01T02:06:43.863Z,54.3923
2023-05-01T02:07:45.166Z,54.3991
2023-05-01T02:08:46.693Z,54.4140
2023-05-01T02:09:48.041Z,54.3848
2023-05-01T02:10:49.469Z,54.3747
2023-05-01T02:11:50.842Z,54.3651
2023-05-01T02:12:52.350Z,54.3722
2023-05-01T02:13:53.747Z,54.3412
2023-05-01T02:14:55.147Z,54.3462
2023-05-01T02:15:56.611Z,54.3402
2023-05-01T02:16:57.954Z,54.2579
2023-05-01T02:17:59.463Z,54.2790
2023-05-01T02:19:00.826Z,54.3234
2023-05-01T02:20:02.287Z,54.2796
2023-05-01T02:21:03.586Z,54.3422
2023-05-01T02:22:05.106Z,54.2984
2023-05-01T02:23:06.535Z,54.3093
2023-05-01T02:24:07.983Z,54.2973
2023-05-01T02:25:09.362Z,54.3194
2023-05-01T02:26:10.699Z,54.3273
2023-05-01T02:27:12.267Z,54.3588
2023-05-01T02:28:13.579Z,54.3262
2023-05-01T02:29:15.057Z,54.2775
2023-05-01T02:30:16.447Z,54.3059
2023-05-01T02:31:17.891Z,54.2477
2023-05-01T02:32:19.397Z,54.2998
2023-05-01T02:33:20.691Z,54.3878
2023-05-01T02:34:22.197Z,54.2850
2023-05-01T02:35:23.541Z,54.3809
2023-05-01T02:36:25.012Z,54.3881
2023-05-01T02:37:26.393Z,54.3674
2023-05-01T02:38:27.851Z,54.3007
2023-05-01T02:39:29.268Z,54.3034
2023-05-01T02:40:30.672Z,54.3532
2023-05-01T02:41:32.108Z,54.3454
2023-05-01T02:42:33.550Z,54.3956
2023-05-01T02:43:34.930Z,54.3074
2023-05-01T02:44:36.453Z,54.3329
2023-05-01T02:45:37.801Z,54.3640
2023-05-01T02:46:39.258Z,54.3029
2023-05-01T02:47:40.651Z,54.2953
2023-05-01T02:48:42.062Z,54.2903
2023-05-01T02:49:43.508Z,54.2883
2023-05-01T02:50:44.911Z,54.3011
2023-05-01T02:51:46.322Z,54.2497
2023-05-01T02:52:47.761Z,54.2702
2023-05-01T02:53:49.153Z,54.2226
2023-05-01T02:54:50.691Z,54.2375
2023-05-01T02:55:51.998Z,54.2630
2023-05-01T02:56:53.443Z,54.2925
2023-05-01T02:57:54.841Z,54.3034
2023-05-01T02:58:56.301Z,54.3175
2023-05-01T02:59:58.051Z,54.3265
2023-05-01T03:00:59.228Z,54.3000
2023-05-01T03:02:00.424Z,54.2904
2023-05-01T03:03:02.037Z,54.2382
2023-05-01T03:04:03.457Z,54.2139
2023-05-01T03:05:04.836Z,54.2381
2023-05-01T03:06:06.185Z,54.3081
2023-05-01T03:07:07.697Z,54.3027
2023-05-01T03:08:09.046Z,54.2561
2023-05-01T03:09:10.497Z,54.2729
2023-05-01T03:10:11.897Z,54.2949
2023-05-01T03:11:13.404Z,54.2762
2023-05-01T03:12:14.746Z,54.2874
2023-05-01T03:13:16.208Z,54.2935
2023-05-01T03:14:17.582Z,54.2583
2023-05-01T03:15:19.076Z,54.2510
2023-05-01T03:16:20.533Z,54.3333
2023-05-01T03:17:21.883Z,54.3502
2023-05-01T03:18:23.177Z,54.3407
2023-05-01T03:19:24.667Z,54.2820
2023-05-01T03:20:27.450Z,54.3098
2023-05-01T03:21:27.544Z,54.2740
2023-05-01T03:22:28.988Z,54.2647
2023-05-01T03:23:30.401Z,54.3600
2023-05-01T03:24:31.773Z,54.3573
2023-05-01T03:25:33.223Z,54.3705
2023-05-01T03:26:34.659Z,54.3630
2023-05-01T03:27:36.117Z,54.3574
2023-05-01T03:28:37.423Z,54.3342
2023-05-01T03:29:38.856Z,54.3390
2023-05-01T03:30:40.322Z,54.3781
2023-05-01T03:31:41.814Z,54.3482
2023-05-01T03:32:43.202Z,54.3861
2023-05-01T03:33:44.583Z,54.3675
2023-05-01T03:34:45.967Z,54.3533
2023-05-01T03:35:47.575Z,54.3470
2023-05-01T03:36:48.928Z,54.4066
2023-05-01T03:37:50.323Z,54.4185
2023-05-01T03:38:51.607Z,54.4087
2023-05-01T03:39:53.255Z,54.4012
2023-05-01T03:40:54.533Z,54.3654
2023-05-01T03:41:55.892Z,54.3223
2023-05-01T03:42:57.336Z,54.3722
2023-05-01T03:43:58.816Z,54.3034
2023-05-01T03:45:00.192Z,54.3284
2023-05-01T03:46:01.706Z,54.3716
2023-05-01T03:47:03.045Z,54.3977
2023-05-01T03:48:04.537Z,54.3445
2023-05-01T03:49:05.871Z,54.3516
2023-05-01T03:50:07.332Z,54.3262
2023-05-01T03:51:08.756Z,54.3255
2023-05-01T03:52:10.195Z,54.2516
2023-05-01T03:53:11.580Z,54.1611
2023-05-01T03:54:13.014Z,54.1881
2023-05-01T03:55:14.425Z,54.3594
2023-05-01T03:56:15.932Z,54.3441
2023-05-01T03:57:17.310Z,54.3473
2023-05-01T03:58:18.720Z,54.3553
2023-05-01T03:59:20.220Z,54.3665
2023-05-01T04:00:21.640Z,54.4111
2023-05-01T04:01:23.112Z,54.3998
2023-05-01T04:02:24.713Z,54.2139
2023-05-01T04:03:25.957Z,54.2688
2023-05-01T04:04:27.275Z,54.2648
2023-05-01T04:05:28.828Z,54.4159
2023-05-01T04:06:30.300Z,54.4119
2023-05-01T04:07:31.653Z,54.3849
2023-05-01T04:08:33.048Z,54.3355
2023-05-01T04:09:34.451Z,54.3544
2023-05-01T04:10:35.853Z,54.4121
2023-05-01T04:11:37.304Z,54.3792
2023-05-01T04:12:38.768Z,54.4363
2023-05-01T04:13:40.102Z,54.3983
2023-05-01T04:14:41.559Z,54.3503
2023-05-01T04:15:42.958Z,54.3763
2023-05-01T04:16:44.503Z,54.3680
2023-05-01T04:17:45.888Z,54.3781
2023-05-01T04:18:47.298Z,54.3804
2023-05-01T04:19:48.698Z,54.3452
2023-05-01T04:20:50.010Z,54.3747
2023-05-01T04:21:51.553Z,54.4017
2023-05-01T04:22:52.965Z,54.3347
2023-05-01T04:23:54.359Z,54.3551
2023-05-01T04:24:55.803Z,54.3574
2023-05-01T04:25:57.174Z,54.3914
2023-05-01T04:26:58.695Z,54.3921
2023-05-01T04:28:00.093Z,54.4218
2023-05-01T04:29:01.511Z,54.3927
2023-05-01T04:30:02.862Z,54.3840
2023-05-01T04:31:04.315Z,54.3374
2023-05-01T04:32:05.807Z,54.3727
2023-05-01T04:33:07.278Z,54.3383
2023-05-01T04:34:08.536Z,54.3532
2023-05-01T04:35:10.039Z,54.3380
2023-05-01T04:36:11.402Z,54.3137
2023-05-01T04:37:12.817Z,54.2707
2023-05-01T04:38:14.279Z,54.3275
2023-05-01T04:39:15.677Z,54.3434
2023-05-01T04:40:16.981Z,54.3674
2023-05-01T04:41:18.515Z,54.3081
2023-05-01T04:42:19.965Z,54.2797
2023-05-01T04:43:21.384Z,54.3100
2023-05-01T04:44:22.798Z,54.3610
2023-05-01T04:45:24.189Z,54.3204
2023-05-01T04:46:25.679Z,54.3157
2023-05-01T04:47:27.104Z,54.2782
2023-05-01T04:48:28.488Z,54.3121
2023-05-01T04:49:29.932Z,54.3303
2023-05-01T04:50:31.358Z,54.3215
2023-05-01T04:51:32.753Z,54.3752
2023-05-01T04:52:34.189Z,54.3354
2023-05-01T04:53:35.621Z,54.3147
2023-05-01T04:54:37.004Z,54.3277
2023-05-01T04:55:38.470Z,54.3672
2023-05-01T04:56:39.885Z,54.3212
2023-05-01T04:57:41.324Z,54.3306
2023-05-01T04:58:42.727Z,54.3401
2023-05-01T04:59:44.070Z,54.2776
2023-05-01T05:00:45.522Z,54.2693
2023-05-01T05:01:46.994Z,54.3328
2023-05-01T05:02:48.589Z,54.3684
2023-05-01T05:03:50.375Z,54.3520
2023-05-01T05:04:51.300Z,54.3502
2023-05-01T05:05:52.640Z,54.4019
2023-05-01T05:06:54.192Z,54.3901
2023-05-01T05:07:55.469Z,54.3212
2023-05-01T05:08:56.971Z,54.3101
2023-05-01T05:09:58.602Z,54.3417
2023-05-01T05:10:59.836Z,54.3117
2023-05-01T05:12:01.180Z,54.4033
2023-05-01T05:13:02.652Z,54.3632
2023-05-01T05:14:04.100Z,54.3709
2023-05-01T05:15:05.500Z,54.3986
2023-05-01T05:16:06.914Z,54.3121
2023-05-01T05:17:08.330Z,54.2799
2023-05-01T05:18:09.853Z,54.3128
2023-05-01T05:19:11.241Z,54.3560
2023-05-01T05:20:12.639Z,54.3383
2023-05-01T05:21:14.025Z,54.3007
2023-05-01T05:22:15.364Z,54.2685
2023-05-01T05:23:16.837Z,54.2847
2023-05-01T05:24:18.333Z,54.2689
2023-05-01T05:25:19.704Z,54.3100
2023-05-01T05:26:21.145Z,54.3482
2023-05-01T05:27:22.511Z,54.2826
2023-05-01T05:28:24.013Z,54.3176
2023-05-01T05:29:25.453Z,54.2658
2023-05-01T05:30:26.858Z,54.2592
2023-05-01T05:31:28.283Z,54.3273
2023-05-01T05:32:29.850Z,54.3519
2023-05-01T05:33:31.087Z,54.3279
2023-05-01T05:34:32.538Z,54.2858
2023-05-01T05:35:33.916Z,54.2966
2023-05-01T05:36:35.312Z,54.2901
2023-05-01T05:37:36.716Z,54.2809
2023-05-01T05:38:38.204Z,54.3252
2023-05-01T05:39:39.649Z,54.3262
2023-05-01T05:40:41.059Z,54.2499
2023-05-01T05:41:42.414Z,54.2978
2023-05-01T05:42:43.860Z,54.3078
2023-05-01T05:43:45.279Z,54.3606
2023-05-01T05:44:46.745Z,54.3176
2023-05-01T05:45:48.165Z,54.3096
2023-05-01T05:46:49.554Z,54.3612
2023-05-01T05:47:50.985Z,54.3542
2023-05-01T05:48:52.420Z,54.3704
2023-05-01T05:49:53.921Z,54.2929
2023-05-01T05:50:55.262Z,54.3260
2023-05-01T05:51:56.659Z,54.3201
2023-05-01T05:52:58.084Z,54.3545
2023-05-01T05:53:59.552Z,54.3275
2023-05-01T05:55:00.883Z,54.3338
2023-05-01T05:56:02.416Z,54.3085
2023-05-01T05:57:03.792Z,54.3728
2023-05-01T05:58:05.236Z,54.3660
2023-05-01T05:59:06.623Z,54.3468
2023-05-01T06:00:08.090Z,54.3119
2023-05-01T06:01:09.525Z,54.3439
2023-05-01T06:02:10.948Z,54.3241
2023-05-01T06:03:12.442Z,54.3246
2023-05-01T06:04:13.745Z,54.3444
2023-05-01T06:05:15.214Z,54.3833
2023-05-01T06:06:16.682Z,54.3574
2023-05-01T06:07:18.028Z,54.4107
2023-05-01T06:08:19.458Z,54.3617
2023-05-01T06:09:20.854Z,54.3080
2023-05-01T06:10:22.293Z,54.2699
2023-05-01T06:11:23.794Z,54.2684
2023-05-01T06:12:25.150Z,54.2867
2023-05-01T06:13:26.505Z,54.2807
2023-05-01T06:14:27.966Z,54.3133
2023-05-01T06:15:29.388Z,54.3787
2023-05-01T06:16:30.972Z,54.3198
2023-05-01T06:17:32.294Z,54.2939
2023-05-01T06:18:33.656Z,54.2995
2023-05-01T06:19:35.022Z,54.3249
2023-05-01T06:20:36.417Z,54.3490
2023-05-01T06:21:37.925Z,54.3216
2023-05-01T06:22:39.307Z,54.3290
2023-05-01T06:23:40.743Z,54.2887
2023-05-01T06:24:42.143Z,54.2743
2023-05-01T06:25:43.580Z,54.2963
2023-05-01T06:26:44.930Z,54.3537
2023-05-01T06:27:46.481Z,54.3155
2023-05-01T06:28:47.818Z,54.3056
2023-05-01T06:29:49.220Z,54.3019
2023-05-01T06:30:50.662Z,54.2733
2023-05-01T06:31:52.213Z,54.1987
2023-05-01T06:32:53.562Z,54.2032
2023-05-01T06:33:54.957Z,54.2961
2023-05-01T06:34:56.366Z,54.2436
2023-05-01T06:35:57.892Z,54.1183
2023-05-01T06:36:59.189Z,54.0628
2023-05-01T06:38:00.697Z,53.9926
2023-05-01T06:39:02.093Z,53.9924
2023-05-01T06:40:03.495Z,54.0546
2023-05-01T06:41:04.900Z,54.1195
2023-05-01T06:42:06.306Z,54.0082
2023-05-01T06:43:07.766Z,53.9796
2023-05-01T06:44:09.248Z,53.9537
2023-05-01T06:45:10.646Z,53.9741
2023-05-01T06:46:11.965Z,54.0039
2023-05-01T06:47:13.435Z,53.9578
2023-05-01T06:48:14.905Z,53.9634
2023-05-01T06:49:16.246Z,53.9372
2023-05-01T06:50:17.693Z,53.9590
2023-05-01T06:51:19.040Z,53.9210
2023-05-01T06:52:20.498Z,53.9359
2023-05-01T06:53:21.834Z,53.9168
2023-05-01T06:54:23.345Z,53.9013
2023-05-01T06:55:24.711Z,53.9178
2023-05-01T06:56:26.150Z,53.9100
2023-05-01T06:57:27.552Z,54.0804
2023-05-01T06:58:29.016Z,54.1203
2023-05-01T06:59:30.372Z,54.0310
2023-05-01T07:00:31.888Z,54.1025
2023-05-01T07:01:35.297Z,54.1688
2023-05-01T07:02:34.794Z,54.2145
2023-05-01T07:03:36.181Z,54.1441
2023-05-01T07:04:37.579Z,54.1417
2023-05-01T07:05:38.854Z,54.2229
2023-05-01T07:06:40.446Z,54.4701
2023-05-01T07:07:47.304Z,54.6267
2023-05-01T07:08:43.282Z,54.6829
2023-05-01T07:09:44.618Z,55.1624
2023-05-01T07:10:46.075Z,54.7890
2023-05-01T07:11:47.476Z,53.8639
2023-05-01T07:12:48.897Z,53.3862
2023-05-01T07:13:50.360Z,53.0203
2023-05-01T07:14:51.713Z,52.1382
2023-05-01T07:15:54.567Z,51.8671
2023-05-01T07:16:54.766Z,51.6691
2023-05-01T07:17:56.059Z,51.6954
2023-05-01T07:18:57.469Z,51.3524
2023-05-01T07:19:59.037Z,51.2840
2023-05-01T07:21:00.270Z,51.1529
2023-05-01T07:22:01.688Z,50.9243
2023-05-01T07:23:04.645Z,50.9686
2023-05-01T07:24:04.590Z,51.0449
2023-05-01T07:25:05.917Z,50.9208
2023-05-01T07:26:07.402Z,51.0282
2023-05-01T07:27:08.727Z,51.2219
2023-05-01T07:28:10.251Z,51.4150
2023-05-01T07:29:11.724Z,51.7577
2023-05-01T07:30:13.141Z,51.9595
2023-05-01T07:31:14.471Z,51.9534
2023-05-01T07:32:16.017Z,51.8944
2023-05-01T07:33:17.359Z,51.8219
2023-05-01T07:34:18.786Z,51.7882
2023-05-01T07:35:20.221Z,51.9958
2023-05-01T07:36:21.625Z,52.2490
2023-05-01T07:37:23.010Z,52.4054
2023-05-01T07:38:24.477Z,52.3534
2023-05-01T07:39:25.873Z,52.0834
2023-05-01T07:40:27.353Z,51.8811
2023-05-01T07:41:28.710Z,51.8504
2023-05-01T07:42:30.147Z,51.8011
2023-05-01T07:43:31.536Z,51.7825
2023-05-01T07:44:32.991Z,51.6273
2023-05-01T07:45:34.415Z,51.6352
2023-05-01T07:46:35.883Z,51.4910
2023-05-01T07:47:37.262Z,51.4694
2023-05-01T07:48:39.185Z,51.5551
2023-05-01T07:49:40.143Z,51.1497
2023-05-01T07:50:41.550Z,51.1306
2023-05-01T07:51:42.946Z,51.0870
2023-05-01T07:52:44.422Z,51.0874
2023-05-01T07:53:45.718Z,51.2765
2023-05-01T07:54:47.252Z,51.3185
2023-05-01T07:55:48.614Z,51.2105
2023-05-01T07:56:50.049Z,51.2300
2023-05-01T07:57:51.415Z,51.6503
2023-05-01T07:58:52.863Z,51.7217
2023-05-01T07:59:54.435Z,51.6361
2023-05-01T08:00:55.811Z,51.3776
2023-05-01T08:01:57.252Z,51.1939
2023-05-01T08:02:58.733Z,51.1546
2023-05-01T08:04:00.238Z,51.1950
2023-05-01T08:05:01.626Z,51.2454
2023-05-01T08:06:03.077Z,51.3043
2023-05-01T08:07:04.370Z,51.3336
2023-05-01T08:08:05.673Z,51.3850
2023-05-01T08:09:07.169Z,51.4245
2023-05-01T08:10:08.637Z,51.4801
2023-05-01T08:11:10.148Z,51.5090
2023-05-01T08:12:11.449Z,51.5416
2023-05-01T08:13:12.874Z,51.6367
2023-05-01T08:14:14.279Z,51.6117
2023-05-01T08:15:15.769Z,51.5771
2023-05-01T08:16:18.168Z,51.6059
2023-05-01T08:17:18.594Z,51.6320
2023-05-01T08:18:19.949Z,51.6498
2023-05-01T08:19:21.410Z,51.6697
2023-05-01T08:20:22.891Z,51.6971
2023-05-01T08:21:24.252Z,51.7534
2023-05-01T08:22:25.654Z,51.7700
2023-05-01T08:23:27.057Z,51.7955
2023-05-01T08:24:28.495Z,51.8325
2023-05-01T08:25:29.890Z,51.8207
2023-05-01T08:26:31.354Z,51.8517
2023-05-01T08:27:32.776Z,51.9216
2023-05-01T08:28:34.162Z,52.1617
2023-05-01T08:29:35.557Z,52.5012
2023-05-01T08:30:37.018Z,52.6137
2023-05-01T08:31:38.589Z,52.7534
2023-05-01T08:32:40.001Z,52.5378
2023-05-01T08:33:41.265Z,52.3375
2023-05-01T08:34:42.720Z,52.2834
2023-05-01T08:35:44.124Z,52.3203
2023-05-01T08:36:45.502Z,52.3734
2023-05-01T08:37:46.990Z,52.3670
2023-05-01T08:38:48.383Z,52.3765
2023-05-01T08:39:49.830Z,52.4131
2023-05-01T08:40:51.254Z,52.6151
2023-05-01T08:41:52.786Z,52.6397
2023-05-01T08:42:54.097Z,52.5806
2023-05-01T08:43:55.587Z,52.4467
2023-05-01T08:44:56.924Z,52.4392
2023-05-01T08:45:58.425Z,52.3967
2023-05-01T08:46:59.894Z,52.5632
2023-05-01T08:48:01.258Z,52.8802
2023-05-01T08:49:02.613Z,52.8070
2023-05-01T08:50:04.069Z,52.6210
2023-05-01T08:51:05.499Z,52.4334
2023-05-01T08:52:06.945Z,52.3225
2023-05-01T08:53:08.356Z,52.1468
2023-05-01T08:54:09.757Z,52.1723
2023-05-01T08:55:11.157Z,52.1739
2023-05-01T08:56:12.599Z,52.1517
2023-05-01T08:57:13.997Z,52.1802
2023-05-01T08:58:15.425Z,52.0291
2023-05-01T08:59:16.827Z,52.0011
2023-05-01T09:00:18.270Z,51.8801
2023-05-01T09:01:19.712Z,51.7544
2023-05-01T09:02:21.248Z,51.6449
2023-05-01T09:03:22.750Z,51.7157
2023-05-01T09:04:24.014Z,51.7484
2023-05-01T09:05:25.353Z,51.7399
2023-05-01T09:06:26.894Z,51.7673
2023-05-01T09:07:28.259Z,51.8798
2023-05-01T09:08:29.681Z,52.1518
2023-05-01T09:09:31.092Z,52.3453
2023-05-01T09:10:33.066Z,52.3692
2023-05-01T09:11:33.918Z,52.3655
2023-05-01T09:12:35.430Z,52.4421
2023-05-01T09:13:36.826Z,52.4905
2023-05-01T09:14:38.139Z,52.5208
2023-05-01T09:15:39.575Z,52.7373
2023-05-01T09:16:41.083Z,52.6602
2023-05-01T09:17:42.561Z,52.5746
2023-05-01T09:18:43.941Z,52.5614
2023-05-01T09:19:45.282Z,52.5813
2023-05-01T09:20:46.756Z,52.7553
2023-05-01T09:21:48.098Z,52.9415
2023-05-01T09:22:49.614Z,53.1290
2023-05-01T09:23:50.940Z,53.1492
2023-05-01T09:24:52.402Z,53.0886
2023-05-01T09:25:53.854Z,53.0932
2023-05-01T09:26:55.255Z,53.1427
2023-05-01T09:27:56.702Z,53.1594
2023-05-01T09:28:58.177Z,53.1072
2023-05-01T09:29:59.587Z,53.1367
2023-05-01T09:31:00.940Z,53.0560
2023-05-01T09:32:02.563Z,53.0228
2023-05-01T09:33:03.921Z,53.0073
2023-05-01T09:34:05.292Z,53.0018
2023-05-01T09:35:06.623Z,52.9981
2023-05-01T09:36:08.111Z,52.9974
2023-05-01T09:37:09.542Z,53.0135
2023-05-01T09:38:10.943Z,53.0013
2023-05-01T09:39:12.435Z,52.9874
2023-05-01T09:40:13.790Z,53.0054
2023-05-01T09:41:15.157Z,52.9849
2023-05-01T09:42:16.620Z,52.9922
2023-05-01T09:43:18.080Z,53.0077
2023-05-01T09:44:19.469Z,53.0286
2023-05-01T09:45:20.842Z,53.0303
2023-05-01T09:46:22.362Z,53.0360
2023-05-01T09:47:23.779Z,53.0600
2023-05-01T09:48:25.187Z,53.0400
2023-05-01T09:49:26.508Z,53.0500
2023-05-01T09:50:27.985Z,53.0600
2023-05-01T09:51:29.415Z,53.0717
2023-05-01T09:52:30.857Z,53.0773
2023-05-01T09:53:32.345Z,53.0906
2023-05-01T09:54:33.734Z,53.1120
2023-05-01T09:55:35.095Z,53.1148
2023-05-01T09:56:36.551Z,53.1283
2023-05-01T09:57:37.946Z,53.1191
2023-05-01T09:58:39.471Z,53.1346
2023-05-01T09:59:41.034Z,53.1529
2023-05-01T10:00:42.233Z,53.1444
2023-05-01T10:01:43.738Z,53.1271
2023-05-01T10:02:45.277Z,53.1171
2023-05-01T10:03:46.631Z,53.1263
2023-05-01T10:04:47.901Z,53.1480
2023-05-01T10:05:49.355Z,53.1333
2023-05-01T10:06:51.123Z,53.1358
2023-05-01T10:07:52.239Z,53.1413
2023-05-01T10:08:53.706Z,53.1421
2023-05-01T10:09:55.366Z,53.1819
2023-05-01T10:10:56.498Z,53.2168
2023-05-01T10:11:58.152Z,53.1739
2023-05-01T10:12:59.396Z,53.1595
2023-05-01T10:14:00.840Z,53.1916
2023-05-01T10:15:13.712Z,53.1932
2023-05-01T10:16:03.627Z,53.2176
2023-05-01T10:17:05.166Z,53.2565
2023-05-01T10:18:06.517Z,53.2382
2023-05-01T10:19:08.001Z,53.2173
2023-05-01T10:20:09.290Z,53.2085
2023-05-01T10:21:10.805Z,53.2459
2023-05-01T10:22:12.191Z,53.3282
2023-05-01T10:23:13.625Z,53.3454
2023-05-01T10:24:15.118Z,53.3234
2023-05-01T10:25:16.528Z,53.3107
2023-05-01T10:26:17.898Z,53.3009
2023-05-01T10:27:19.387Z,53.3555
2023-05-01T10:28:20.750Z,53.3109
2023-05-01T10:29:22.226Z,53.2785
2023-05-01T10:30:23.642Z,53.2867
2023-05-01T10:31:25.115Z,53.2905
2023-05-01T10:32:26.461Z,53.2923
2023-05-01T10:33:27.841Z,53.2886
2023-05-01T10:34:29.373Z,53.3035
2023-05-01T10:35:30.845Z,53.3328
2023-05-01T10:36:32.122Z,53.3105
2023-05-01T10:37:33.583Z,53.3167
2023-05-01T10:38:34.995Z,53.3130
2023-05-01T10:39:36.514Z,53.3275
2023-05-01T10:40:37.956Z,53.3406
2023-05-01T10:41:39.280Z,53.3365
2023-05-01T10:42:40.721Z,53.3203
2023-05-01T10:43:42.151Z,53.3539
2023-05-01T10:44:43.589Z,53.3390
2023-05-01T10:45:45.071Z,53.3303
2023-05-01T10:46:46.590Z,53.3656
2023-05-01T10:47:47.928Z,53.3822
2023-05-01T10:48:49.271Z,53.3616
2023-05-01T10:49:50.749Z,53.3615
2023-05-01T10:50:52.167Z,53.3606
2023-05-01T10:51:53.556Z,53.3763
2023-05-01T10:52:54.896Z,53.3669
2023-05-01T10:53:56.489Z,53.3653
2023-05-01T10:54:58.002Z,53.3806
2023-05-01T10:55:59.255Z,53.3961
2023-05-01T10:57:00.698Z,53.3870
2023-05-01T10:58:02.124Z,53.3873
2023-05-01T10:59:03.547Z,53.3866
2023-05-01T11:00:04.919Z,53.3923
2023-05-01T11:01:06.545Z,53.3686
2023-05-01T11:02:07.919Z,53.4052
2023-05-01T11:03:09.191Z,53.3925
2023-05-01T11:04:10.683Z,53.3826
2023-05-01T11:05:12.135Z,53.3789
2023-05-01T11:06:13.635Z,53.3992
2023-05-01T11:07:15.026Z,53.3994
2023-05-01T11:08:16.376Z,53.4153
2023-05-01T11:09:17.763Z,53.4221
2023-05-01T11:10:19.191Z,53.4188
2023-05-01T11:11:20.665Z,53.4049
2023-05-01T11:12:21.966Z,53.4007
2023-05-01T11:13:23.500Z,53.4291
2023-05-01T11:14:25.051Z,53.4035
2023-05-01T11:15:26.358Z,53.3991
2023-05-01T11:16:27.898Z,53.4209
2023-05-01T11:17:29.235Z,53.4247
2023-05-01T11:18:30.653Z,53.4133
2023-05-01T11:19:31.985Z,53.3984
2023-05-01T11:20:33.537Z,53.4061
2023-05-01T11:21:34.975Z,53.4143
2023-05-01T11:22:36.434Z,53.4177
2023-05-01T11:23:37.820Z,53.4247
2023-05-01T11:24:39.228Z,53.4288
2023-05-01T11:25:40.612Z,53.4332
2023-05-01T11:26:42.183Z,53.4227
2023-05-01T11:27:43.465Z,53.4433
2023-05-01T11:28:44.893Z,53.4605
2023-05-01T11:29:46.312Z,53.4338
2023-05-01T11:30:47.765Z,53.4148
2023-05-01T11:31:49.258Z,53.4575
2023-05-01T11:32:50.719Z,53.4693
2023-05-01T11:33:51.995Z,53.4758
2023-05-01T11:34:53.452Z,53.4729
2023-05-01T11:35:54.861Z,53.4701
2023-05-01T11:36:56.296Z,53.4613
2023-05-01T11:37:57.787Z,53.4815
2023-05-01T11:38:59.102Z,53.4698
2023-05-01T11:40:00.562Z,53.4896
2023-05-01T11:41:01.945Z,53.4917
2023-05-01T11:42:03.505Z,53.6126
2023-05-01T11:43:04.832Z,53.8322
2023-05-01T11:44:06.284Z,53.7978
2023-05-01T11:45:07.664Z,54.1686
2023-05-01T11:46:09.243Z,54.2551
2023-05-01T11:47:10.575Z,54.2542
2023-05-01T11:48:12.092Z,54.5478
2023-05-01T11:49:13.337Z,54.4724
2023-05-01T11:50:14.705Z,55.7982
2023-05-01T11:51:16.193Z,56.3397
2023-05-01T11:52:17.707Z,55.9795
2023-05-01T11:53:19.034Z,56.9330
2023-05-01T11:54:20.520Z,56.9418
2023-05-01T11:55:21.877Z,56.0540
2023-05-01T11:56:27.038Z,55.2559
2023-05-01T11:57:24.766Z,55.5215
2023-05-01T11:58:26.165Z,54.4130
2023-05-01T11:59:27.573Z,53.8149
2023-05-01T12:00:29.058Z,54.6989
2023-05-01T12:01:30.451Z,53.7227
2023-05-01T12:02:32.132Z,53.0007
2023-05-01T12:03:33.450Z,52.3085
2023-05-01T12:04:34.776Z,52.0116
2023-05-01T12:05:36.241Z,51.5904
2023-05-01T12:06:37.760Z,51.3280
2023-05-01T12:07:38.990Z,51.1096
2023-05-01T12:08:40.515Z,50.9564
2023-05-01T12:09:41.888Z,50.8996
2023-05-01T12:10:43.349Z,50.8683
2023-05-01T12:11:44.730Z,50.7810
2023-05-01T12:12:46.208Z,51.0563
2023-05-01T12:13:47.622Z,51.1350
2023-05-01T12:14:49.046Z,51.0950
2023-05-01T12:15:50.455Z,51.1186
2023-05-01T12:16:51.964Z,51.1524
2023-05-01T12:17:53.375Z,51.2070
2023-05-01T12:18:54.813Z,51.2186
2023-05-01T12:19:56.050Z,51.2646
2023-05-01T12:20:57.652Z,51.2882
2023-05-01T12:21:58.978Z,51.4434
2023-05-01T12:23:00.466Z,51.4725